Friday, January 18, 2019, 2:48 AM EST
Back to Local

KMTP, Montauk Airport

Location: Montauk, NY, United States Lat: 41.067
Local Time: 2:48 AM EST ( 7:48 GMT) Lon: -71.917
Time Zone: US/Eastern Elev: 6 ft

Show me the last for .
Show Coded

Time T Td Feel RH Dir Speed Gust Alt SLP Vis Weather Sky Remarks
2019-01-18 01:54 34 22 - 60 - Calm - 30.22 30.22 0 None
2019-01-18 00:54 33 21 28 60 130° 6 - 30.23 30.23 0 6-hr Min Temp (1am): 28.0°F
6-hr Max Temp (1am): 33.1°F
2019-01-17 23:54 33 20 29 58 Variable 5 - 30.27 30.26 0 24-hr Min Temp (12am): 25.0°F
24-hr Max Temp (12am): 35.1°F
2019-01-17 22:54 32 20 - 60 - Calm - 30.29 30.29 0 None
2019-01-17 21:54 31 20 27 63 Variable 3 - 30.31 30.31 0 None
2019-01-17 20:54 30 17 - 58 - Calm - 30.31 30.31 0 None
2019-01-17 19:54 30 16 - 55 - Calm - 30.33 30.33 0 None
2019-01-17 18:54 30 14 - 50 - Calm - 30.34 30.34 0 6-hr Min Temp (7pm): 28.0°F
6-hr Max Temp (7pm): 30.0°F
2019-01-17 17:54 29 13 25 50 Variable 3 - 30.35 30.35 0 None
2019-01-17 16:54 28 9 24 43 Variable 3 - 30.33 30.32 0 None
2019-01-17 15:54 28 6 23 38 Variable 5 - 30.35 30.35 0 None
2019-01-17 14:54 29 1 - 29 - Calm - 30.36 30.36 0 None
2019-01-17 13:54 29 -2 23 25 20° 6 - 30.36 30.36 0 None
2019-01-17 12:54 29 0 24 27 20° 5 - 30.37 30.37 0 6-hr Min Temp (1pm): 25.0°F
6-hr Max Temp (1pm): 28.9°F
2019-01-17 11:54 28 1 20 30 360° 8 - 30.39 30.39 0 None
2019-01-17 10:54 27 2 19 33 340° 8 - 30.42 30.41 0 None
2019-01-17 09:54 26 2 18 34 360° 7 - 30.42 30.42 0 None
2019-01-17 08:54 26 2 17 34 360° 9 - 30.40 30.40 0 None
2019-01-17 07:54 25 7 16 45 350° 9 - 30.37 30.37 0 None
2019-01-17 06:54 26 9 12 47 360° 9 20 30.36 30.35 0 6-hr Min Temp (7am): 26.1°F
6-hr Max Temp (7am): 33.1°F
2019-01-17 05:54 27 12 17 52 340° 10 - 30.32 30.32 0 None
2019-01-17 04:54 28 13 18 52 340° 12 - 30.30 30.30 0 None
2019-01-17 03:54 29 13 18 50 330° 15 - 30.28 30.28 0 None
2019-01-17 02:54 30 14 20 50 330° 14 - 30.28 30.27 0 None

Support USWX by starting your Amazon purchase here.